Terminal Aerodrome Forecast
Issued by NWS

Current Version | Previous Version | Text Only | Print | Product List | Glossary Off
Versions: 1 2 3 4 5 6 7 8 9 10 11 12 13 14 15 16 17 18 19 20 21 22 23 24 25 26 27

000
FTUS41 KRNK 220543
TAFLWB
TAF
KLWB 220543Z 2206/2306 25006KT P6SM SCT080 BKN120
     FM220800 24007KT P6SM BKN060 OVC090 WS014/25039KT
      TEMPO 2208/2211 P6SM -SHRA
     FM221400 25012G21KT P6SM BKN050 OVC080
     FM221600 26018G28KT P6SM BKN035 OVC050 PROB30 2216/2218 5SM
      SHRA BKN030 OVC045
     FM222300 28008G16KT P6SM SCT035=

USA.gov is the U.S. government's official web portal to all federal, state and local government web resources and services.